Time;durP1;ratioP1;P1;durP2;ratioP2;P2;SDS_P1;SDS_P2;PMS_P1;PMS_P2;Temp;Humidity;BMP_temperature;BMP_pressure;BME280_temperature;BME280_humidity;BME280_pressure;Samples;Min_cycle;Max_cycle;Signal;HPM_P1;HPM_P2
2023/08/17 00:01:38;;;;;;;4.45;2.30;;;;;;;17.62;100.00;102063.53;4983964;28;20090;-87
2023/08/17 00:04:03;;;;;;;3.28;2.30;;;;;;;17.85;100.00;102068.91;4989350;28;20117;-88
2023/08/17 00:06:28;;;;;;;2.90;2.58;;;;;;;17.87;100.00;102077.81;4988681;28;20041;-88
2023/08/17 00:08:54;;;;;;;4.47;2.30;;;;;;;17.63;100.00;102074.47;4988841;28;20037;-88
2023/08/17 00:11:19;;;;;;;3.70;2.45;;;;;;;17.81;100.00;102066.03;4989112;28;20015;-88
2023/08/17 00:13:45;;;;;;;6.35;3.13;;;;;;;17.68;100.00;102037.25;4978972;28;20137;-87
2023/08/17 00:16:10;;;;;;;3.17;1.95;;;;;;;17.61;100.00;102057.06;4976580;28;20086;-88
2023/08/17 00:18:35;;;;;;;2.67;1.90;;;;;;;17.67;100.00;102057.50;4992590;28;20141;-87
2023/08/17 00:21:01;;;;;;;3.97;2.15;;;;;;;17.60;100.00;102061.13;4981423;28;20030;-88
2023/08/17 00:23:26;;;;;;;6.53;2.75;;;;;;;17.55;100.00;102057.84;4983998;28;20300;-87
2023/08/17 00:25:51;;;;;;;4.57;2.13;;;;;;;17.57;100.00;102056.25;4987376;28;20041;-88
2023/08/17 00:28:17;;;;;;;6.97;2.05;;;;;;;17.82;100.00;102066.84;4987946;28;20209;-88
2023/08/17 00:30:42;;;;;;;3.92;2.38;;;;;;;17.55;100.00;102050.16;4979480;28;20058;-87
2023/08/17 00:33:08;;;;;;;3.35;1.83;;;;;;;17.68;100.00;102065.56;4987703;28;20022;-87
2023/08/17 00:35:33;;;;;;;6.30;2.30;;;;;;;17.50;100.00;102061.03;4986393;28;20067;-87
2023/08/17 00:38:02;;;;;;;6.53;2.70;;;;;;;17.75;100.00;102055.50;4980019;28;20054;-88
2023/08/17 00:40:27;;;;;;;4.78;2.22;;;;;;;17.78;100.00;102051.88;4978923;28;20443;-87
2023/08/17 00:42:53;;;;;;;4.95;2.05;;;;;;;17.73;100.00;102050.25;4981512;28;20022;-87
2023/08/17 00:45:18;;;;;;;3.60;2.10;;;;;;;17.62;100.00;102053.00;4978303;28;20105;-87
2023/08/17 00:47:44;;;;;;;5.30;2.80;;;;;;;17.56;100.00;102037.66;5002044;28;20113;-89
2023/08/17 00:50:10;;;;;;;7.65;2.67;;;;;;;17.38;100.00;102025.44;4974235;28;20414;-88
2023/08/17 00:52:36;;;;;;;5.82;2.20;;;;;;;17.38;100.00;102019.75;4984671;28;20029;-88
2023/08/17 00:55:02;;;;;;;6.90;2.80;;;;;;;17.30;100.00;102029.44;4985651;28;20034;-88
2023/08/17 00:57:28;;;;;;;4.28;2.38;;;;;;;17.54;100.00;102017.41;4982861;28;20332;-88
2023/08/17 00:59:54;;;;;;;4.95;2.70;;;;;;;17.37;100.00;102029.44;4986499;28;20041;-88
2023/08/17 01:02:20;;;;;;;4.07;2.42;;;;;;;17.30;100.00;102004.75;4984024;28;20041;-87
2023/08/17 01:04:46;;;;;;;5.25;2.50;;;;;;;17.25;100.00;102028.59;4990358;28;20081;-87
2023/08/17 01:07:11;;;;;;;6.03;2.40;;;;;;;17.45;100.00;102025.44;4976541;28;20029;-87
2023/08/17 01:09:37;;;;;;;6.25;2.90;;;;;;;17.35;100.00;102031.88;4984853;28;20030;-87
2023/08/17 01:12:17;;;;;;;6.57;2.63;;;;;;;17.36;100.00;102027.84;4984894;28;20053;-87
2023/08/17 01:14:57;;;;;;;3.70;1.73;;;;;;;17.47;100.00;102023.03;4993777;28;20166;-87
2023/08/17 01:17:29;;;;;;;9.90;2.67;;;;;;;17.31;100.00;102016.88;4981412;28;20555;-87
2023/08/17 01:19:58;;;;;;;10.53;2.53;;;;;;;17.48;100.00;102024.66;4994127;28;20407;-87
2023/08/17 01:22:25;;;;;;;8.20;2.70;;;;;;;17.37;100.00;102020.97;4986960;28;20037;-87
2023/08/17 01:24:56;;;;;;;6.35;2.67;;;;;;;17.17;100.00;102024.09;4979243;28;20229;-88
2023/08/17 01:27:23;;;;;;;11.43;3.17;;;;;;;17.14;100.00;102015.59;4980598;28;20414;-87
2023/08/17 01:29:49;;;;;;;4.38;1.98;;;;;;;17.45;100.00;102025.44;4985753;28;20036;-87
2023/08/17 01:32:37;;;;;;;6.97;2.67;;;;;;;17.11;100.00;102011.53;4977203;28;20019;-88
2023/08/17 01:35:19;;;;;;;5.88;1.88;;;;;;;17.21;100.00;102016.44;4980693;28;20110;-85
2023/08/17 01:37:44;;;;;;;4.18;2.63;;;;;;;17.06;100.00;102020.41;4987688;28;20116;-87
2023/08/17 01:40:12;;;;;;;4.60;2.15;;;;;;;17.26;100.00;102018.88;4985077;28;20030;-87
2023/08/17 01:42:39;;;;;;;3.92;2.25;;;;;;;17.35;100.00;102031.88;4976893;28;20034;-87
2023/08/17 01:45:05;;;;;;;5.53;2.80;;;;;;;17.13;100.00;102017.63;4994371;28;20026;-87
2023/08/17 01:47:30;;;;;;;5.82;2.38;;;;;;;16.86;100.00;102026.38;4975117;28;20475;-87
2023/08/17 01:49:59;;;;;;;6.00;2.05;;;;;;;17.01;100.00;102009.47;4985769;28;20042;-87
2023/08/17 01:52:27;;;;;;;6.60;3.00;;;;;;;17.09;100.00;102025.28;4993077;28;20022;-88
2023/08/17 01:54:53;;;;;;;3.17;2.25;;;;;;;16.96;100.00;102021.97;4980217;28;20034;-87
2023/08/17 01:57:18;;;;;;;5.00;2.58;;;;;;;16.94;100.00;102020.75;4986878;28;20056;-88
2023/08/17 01:59:43;;;;;;;4.70;2.15;;;;;;;16.90;100.00;102008.59;4970307;28;20027;-87
2023/08/17 02:02:09;;;;;;;3.13;2.22;;;;;;;16.97;100.00;102017.94;4975206;28;20120;-87
2023/08/17 02:04:35;;;;;;;4.68;3.05;;;;;;;16.82;100.00;102013.38;4972260;28;20035;-87
2023/08/17 02:07:00;;;;;;;3.42;2.00;;;;;;;16.86;100.00;101989.59;4972112;28;20015;-87
2023/08/17 02:09:25;;;;;;;6.57;2.13;;;;;;;17.00;100.00;102008.66;4985260;28;20080;-87
2023/08/17 02:11:51;;;;;;;4.38;2.75;;;;;;;16.97;100.00;102017.09;4988426;28;20076;-87
2023/08/17 02:14:16;;;;;;;11.10;2.40;;;;;;;16.75;100.00;101991.50;4984720;28;20092;-87
2023/08/17 02:16:42;;;;;;;4.53;2.30;;;;;;;17.11;100.00;102014.38;4984941;28;20069;-87
2023/08/17 02:19:07;;;;;;;6.15;2.22;;;;;;;17.10;100.00;102017.59;4986312;28;20459;-87
2023/08/17 02:21:33;;;;;;;3.75;2.45;;;;;;;17.02;100.00;102014.72;4980536;28;20149;-87
2023/08/17 02:23:58;;;;;;;4.97;2.58;;;;;;;16.75;100.00;102013.31;4979060;28;20510;-87
2023/08/17 02:26:23;;;;;;;5.15;2.20;;;;;;;17.00;100.00;101994.50;4973742;28;20105;-87
2023/08/17 02:28:49;;;;;;;4.43;2.42;;;;;;;17.15;100.00;102009.53;4974813;28;20122;-87
2023/08/17 02:31:14;;;;;;;2.95;2.10;;;;;;;17.02;100.00;102002.63;4971799;28;20133;-87
2023/08/17 02:33:39;;;;;;;3.20;2.33;;;;;;;16.77;100.00;101997.56;4970202;28;20019;-86
2023/08/17 02:36:05;;;;;;;6.60;2.70;;;;;;;16.74;100.00;101998.38;4971973;28;20109;-87
2023/08/17 02:38:31;;;;;;;6.88;3.40;;;;;;;16.90;100.00;101992.44;4984910;28;20419;-88
2023/08/17 02:40:56;;;;;;;6.40;2.00;;;;;;;16.74;100.00;101980.56;4986618;28;20026;-88
2023/08/17 02:43:24;;;;;;;8.55;2.35;;;;;;;16.77;100.00;101991.91;4983286;28;20035;-88
2023/08/17 02:45:49;;;;;;;3.75;2.33;;;;;;;16.80;100.00;101977.03;4986861;28;20023;-87
2023/08/17 02:48:15;;;;;;;2.22;2.03;;;;;;;16.72;100.00;101983.81;4985072;28;20050;-88
2023/08/17 02:50:40;;;;;;;3.90;2.45;;;;;;;16.40;100.00;101984.41;4974782;28;20610;-88
2023/08/17 02:53:05;;;;;;;2.88;2.20;;;;;;;16.66;100.00;101991.84;4996643;28;20139;-87
2023/08/17 02:55:31;;;;;;;3.38;2.17;;;;;;;16.56;100.00;101991.78;4993323;28;20037;-87
2023/08/17 02:57:56;;;;;;;5.47;2.47;;;;;;;16.62;100.00;101995.84;4983792;28;20373;-87
2023/08/17 03:00:22;;;;;;;3.28;2.25;;;;;;;16.70;100.00;101980.56;4980385;28;20042;-87
2023/08/17 03:02:47;;;;;;;2.78;2.20;;;;;;;16.73;100.00;101996.72;4985643;28;20139;-87
2023/08/17 03:05:12;;;;;;;3.40;2.15;;;;;;;16.58;100.00;101978.06;4981868;28;20648;-87
2023/08/17 03:07:38;;;;;;;6.25;1.98;;;;;;;16.74;100.00;101989.88;4986620;28;20025;-87
2023/08/17 03:10:03;;;;;;;9.38;2.60;;;;;;;16.64;100.00;101982.16;4982163;28;20026;-87
2023/08/17 03:12:29;;;;;;;5.40;2.63;;;;;;;16.51;100.00;101972.34;4987120;28;20022;-87
2023/08/17 03:14:54;;;;;;;6.10;2.53;;;;;;;16.72;100.00;101992.31;4985103;28;20022;-87
2023/08/17 03:17:20;;;;;;;2.90;2.53;;;;;;;16.53;100.00;101975.59;4985003;28;20436;-87
2023/08/17 03:19:45;;;;;;;6.65;2.97;;;;;;;16.52;100.00;101986.09;4984936;28;20506;-88
2023/08/17 03:22:11;;;;;;;3.40;2.08;;;;;;;16.46;100.00;101985.66;4994697;28;20033;-88
2023/08/17 03:24:36;;;;;;;4.32;1.92;;;;;;;16.38;100.00;101992.44;4984784;28;20039;-87
2023/08/17 03:27:01;;;;;;;3.88;2.28;;;;;;;16.50;100.00;101993.34;4983803;28;20025;-88
2023/08/17 03:29:27;;;;;;;3.55;3.00;;;;;;;16.41;100.00;101980.34;4986755;28;20373;-87
2023/08/17 03:31:52;;;;;;;4.57;2.00;;;;;;;16.67;100.00;101982.19;4982929;28;20038;-87
2023/08/17 03:34:18;;;;;;;4.88;2.92;;;;;;;16.44;100.00;101990.88;4989001;28;20486;-87
2023/08/17 03:36:43;;;;;;;4.18;2.97;;;;;;;16.51;100.00;101984.47;4979170;28;20073;-87
2023/08/17 03:39:08;;;;;;;3.10;2.17;;;;;;;16.64;100.00;101980.13;4982004;28;20447;-87
2023/08/17 03:41:36;;;;;;;5.90;2.05;;;;;;;16.42;100.00;101969.84;4981698;28;20027;-87
2023/08/17 03:44:02;;;;;;;3.65;1.70;;;;;;;16.44;100.00;101978.75;4985332;28;20022;-87
2023/08/17 03:46:28;;;;;;;4.63;2.10;;;;;;;16.55;100.00;101985.31;4980418;28;20461;-87
2023/08/17 03:48:53;;;;;;;5.60;2.80;;;;;;;16.61;100.00;101986.56;4986346;28;20046;-87
2023/08/17 03:51:19;;;;;;;5.80;2.17;;;;;;;16.54;100.00;101988.53;4973996;28;20406;-87
2023/08/17 03:53:44;;;;;;;3.47;2.20;;;;;;;16.65;100.00;101989.41;4988778;28;20108;-88
2023/08/17 03:56:09;;;;;;;4.53;2.70;;;;;;;16.66;100.00;101988.22;4986485;28;20109;-87
2023/08/17 03:58:35;;;;;;;6.28;2.30;;;;;;;16.65;100.00;101981.75;4982406;28;20034;-86
2023/08/17 04:01:05;;;;;;;6.00;2.78;;;;;;;16.37;100.00;101988.00;4977163;28;20030;-87
2023/08/17 04:03:31;;;;;;;4.25;2.65;;;;;;;16.38;100.00;101992.44;4975754;28;20053;-87
2023/08/17 04:05:56;;;;;;;5.90;2.88;;;;;;;16.66;100.00;101986.19;4990767;28;20026;-88
2023/08/17 04:08:21;;;;;;;7.93;2.78;;;;;;;16.74;100.00;101992.72;4981158;28;20092;-87
2023/08/17 04:10:47;;;;;;;3.38;1.98;;;;;;;16.59;100.00;101991.81;4986690;28;20467;-87
2023/08/17 04:13:12;;;;;;;6.60;2.47;;;;;;;16.31;100.00;101978.25;4988433;28;20105;-87
2023/08/17 04:15:38;;;;;;;3.55;2.17;;;;;;;16.58;100.00;101975.22;4975726;28;20281;-87
2023/08/17 04:18:03;;;;;;;8.93;3.13;;;;;;;16.69;100.00;101981.75;4999077;28;20546;-87
2023/08/17 04:20:29;;;;;;;4.32;2.65;;;;;;;16.55;100.00;101978.81;4989073;28;20041;-87
2023/08/17 04:22:54;;;;;;;3.42;2.42;;;;;;;16.45;100.00;101969.88;4984186;28;20066;-87
2023/08/17 04:25:19;;;;;;;4.80;2.33;;;;;;;16.59;100.00;101974.00;4986038;28;20121;-87
2023/08/17 04:27:45;;;;;;;3.92;2.15;;;;;;;16.45;100.00;101986.84;4984682;28;20073;-86
2023/08/17 04:30:11;;;;;;;4.03;2.72;;;;;;;16.39;100.00;101971.44;4982856;28;20353;-88
2023/08/17 04:32:36;;;;;;;5.55;3.28;;;;;;;16.43;100.00;101963.81;4988662;28;20309;-88
2023/08/17 04:35:02;;;;;;;4.57;2.70;;;;;;;16.43;100.00;101977.13;4984682;28;20099;-87
2023/08/17 04:37:27;;;;;;;5.47;2.40;;;;;;;16.41;100.00;101974.69;4974882;28;20030;-87
2023/08/17 04:39:53;;;;;;;3.42;2.50;;;;;;;16.57;100.00;101965.13;4983992;28;20033;-87
2023/08/17 04:42:19;;;;;;;4.07;2.67;;;;;;;16.51;100.00;101967.53;4982527;28;20113;-87
2023/08/17 04:44:45;;;;;;;5.05;2.42;;;;;;;16.50;100.00;101950.94;4988487;28;20487;-88
2023/08/17 04:47:10;;;;;;;6.43;2.53;;;;;;;16.44;100.00;101945.69;4980335;28;20042;-87
2023/08/17 04:49:36;;;;;;;5.10;2.85;;;;;;;16.38;100.00;101966.19;4985554;28;20022;-88
2023/08/17 04:52:02;;;;;;;6.55;2.83;;;;;;;16.46;100.00;101957.41;4984770;28;20102;-87
2023/08/17 04:54:27;;;;;;;6.22;3.05;;;;;;;16.21;100.00;101959.19;4985182;28;20050;-87
2023/08/17 04:56:53;;;;;;;5.97;2.63;;;;;;;16.21;100.00;101967.66;4994028;28;20503;-88
2023/08/17 04:59:18;;;;;;;6.20;3.08;;;;;;;16.57;100.00;101965.94;4987390;28;20100;-87
2023/08/17 05:01:44;;;;;;;6.10;2.72;;;;;;;16.44;100.00;101956.97;4986105;28;20061;-87
2023/08/17 05:04:12;;;;;;;8.32;2.55;;;;;;;16.65;100.00;101966.78;4993133;28;20034;-87
2023/08/17 05:06:38;;;;;;;4.15;3.00;;;;;;;16.65;100.00;101958.31;4987368;28;20031;-87
2023/08/17 05:09:04;;;;;;;5.75;3.25;;;;;;;16.50;100.00;101948.13;4986075;28;20026;-87
2023/08/17 05:11:30;;;;;;;6.20;3.15;;;;;;;16.39;100.00;101954.50;4988811;28;20407;-87
2023/08/17 05:13:55;;;;;;;5.47;3.17;;;;;;;16.53;100.00;101964.28;4986668;28;20049;-87
2023/08/17 05:16:22;;;;;;;6.25;2.90;;;;;;;16.37;100.00;101945.59;4986819;28;20062;-87
2023/08/17 05:18:47;;;;;;;9.25;3.83;;;;;;;16.41;100.00;101946.44;4989048;28;20137;-86
2023/08/17 05:21:12;;;;;;;6.47;3.03;;;;;;;16.49;100.00;101952.97;4988649;28;20495;-87
2023/08/17 05:23:38;;;;;;;4.55;2.63;;;;;;;16.36;100.00;101944.00;4990454;28;20036;-88
2023/08/17 05:26:03;;;;;;;6.95;2.75;;;;;;;16.45;100.00;101964.25;4986389;28;20025;-88
2023/08/17 05:28:28;;;;;;;12.68;3.53;;;;;;;16.36;100.00;101966.59;4984518;28;20037;-87
2023/08/17 05:30:54;;;;;;;8.60;3.40;;;;;;;16.25;100.00;101943.91;4984087;28;20030;-87
2023/08/17 05:33:19;;;;;;;5.28;3.03;;;;;;;16.34;100.00;101943.56;5001154;28;20483;-88
2023/08/17 05:35:54;;;;;;;6.43;3.33;;;;;;;16.43;100.00;101966.66;4989189;28;20455;-87
2023/08/17 05:38:19;;;;;;;6.65;2.83;;;;;;;16.51;100.00;101946.91;4988459;28;20040;-87
2023/08/17 05:40:44;;;;;;;7.97;3.95;;;;;;;16.76;100.00;101969.69;4987592;28;20160;-87
2023/08/17 05:43:10;;;;;;;4.70;2.97;;;;;;;16.53;100.00;101945.31;4985873;28;20038;-87
2023/08/17 05:45:36;;;;;;;6.47;3.38;;;;;;;16.61;100.00;101958.31;4987535;28;20104;-87
2023/08/17 05:48:02;;;;;;;6.80;2.97;;;;;;;16.62;100.00;101965.56;4986620;28;20140;-87
2023/08/17 05:50:27;;;;;;;7.07;3.03;;;;;;;16.67;100.00;101968.03;4984151;28;20405;-87
2023/08/17 05:52:54;;;;;;;3.65;2.50;;;;;;;16.53;100.00;101961.44;5003213;28;20041;-87
2023/08/17 05:55:19;;;;;;;5.97;2.92;;;;;;;16.57;100.00;101980.09;4983570;28;20566;-87
2023/08/17 05:57:45;;;;;;;6.95;3.03;;;;;;;16.59;100.00;101974.00;4998127;28;20034;-87
2023/08/17 06:00:12;;;;;;;4.85;2.63;;;;;;;16.43;100.00;101980.78;4981242;28;20023;-87
2023/08/17 06:02:37;;;;;;;11.02;4.05;;;;;;;16.59;100.00;101969.19;4985853;28;20053;-88
2023/08/17 06:05:03;;;;;;;8.85;2.85;;;;;;;16.42;100.00;101967.88;4986715;28;20030;-87
2023/08/17 06:07:28;;;;;;;6.60;2.20;;;;;;;16.41;100.00;101971.88;4986930;28;20050;-87
2023/08/17 06:09:54;;;;;;;6.38;2.60;;;;;;;16.45;100.00;101969.09;4982919;28;20456;-87
2023/08/17 06:12:19;;;;;;;6.97;2.92;;;;;;;16.58;100.00;101966.75;4986196;28;20120;-87
2023/08/17 06:14:45;;;;;;;2.50;1.83;;;;;;;16.63;100.00;101964.38;4992746;28;20112;-87
2023/08/17 06:17:10;;;;;;;4.97;1.85;;;;;;;16.62;100.00;101973.25;4986950;28;20398;-87
2023/08/17 06:19:35;;;;;;;4.80;2.47;;;;;;;16.88;100.00;101982.72;4983958;28;20030;-87
2023/08/17 06:22:01;;;;;;;4.85;2.45;;;;;;;16.75;100.00;101985.84;4986877;28;20442;-87
2023/08/17 06:24:26;;;;;;;7.00;2.13;;;;;;;16.82;100.00;101988.75;4987775;28;20078;-87
2023/08/17 06:26:51;;;;;;;5.55;3.20;;;;;;;16.82;100.00;101977.47;4986131;28;20034;-87
2023/08/17 06:29:17;;;;;;;6.95;3.70;;;;;;;16.89;100.00;101982.34;4987088;28;20109;-87
2023/08/17 06:31:45;;;;;;;6.03;2.53;;;;;;;16.81;100.00;101981.47;4987311;28;20084;-87
2023/08/17 06:34:11;;;;;;;4.80;2.10;;;;;;;16.69;100.00;101964.81;4981090;28;20386;-86
2023/08/17 06:36:39;;;;;;;3.40;2.22;;;;;;;16.72;100.00;101974.50;4985927;28;20031;-87
2023/08/17 06:39:04;;;;;;;4.25;2.08;;;;;;;16.81;100.00;101969.34;4986755;28;20122;-87
2023/08/17 06:41:29;;;;;;;4.90;2.53;;;;;;;16.79;100.00;101972.53;4985232;28;20090;-87
2023/08/17 06:43:55;;;;;;;3.70;2.10;;;;;;;16.85;100.00;101982.31;4985795;28;20022;-87
2023/08/17 06:46:20;;;;;;;3.13;2.15;;;;;;;16.76;100.00;101970.53;4982556;28;20475;-87
2023/08/17 06:48:46;;;;;;;7.28;2.58;;;;;;;16.93;100.00;101982.34;4991696;28;20042;-87
2023/08/17 06:51:11;;;;;;;3.22;2.20;;;;;;;16.79;100.00;101955.56;4988877;28;20188;-87
2023/08/17 06:53:37;;;;;;;5.18;2.20;;;;;;;17.02;100.00;101994.13;4992808;28;20032;-87
2023/08/17 06:56:02;;;;;;;4.82;2.20;;;;;;;16.99;100.00;101997.72;4983914;28;20022;-87
2023/08/17 06:58:27;;;;;;;5.97;2.22;;;;;;;16.99;100.00;101998.56;4995615;28;20023;-87
2023/08/17 07:00:53;;;;;;;5.28;2.85;;;;;;;16.98;100.00;101987.63;4976671;28;20027;-87
2023/08/17 07:03:18;;;;;;;5.30;2.13;;;;;;;17.03;100.00;101998.56;4985657;28;20137;-87
2023/08/17 07:05:44;;;;;;;4.68;3.33;;;;;;;16.93;100.00;101999.31;4984661;28;20026;-88
2023/08/17 07:08:09;;;;;;;3.63;2.00;;;;;;;17.01;100.00;101998.16;4986063;28;20511;-88
2023/08/17 07:10:35;;;;;;;7.20;2.00;;;;;;;17.11;100.00;101994.56;4988698;28;20117;-87
2023/08/17 07:13:03;;;;;;;3.88;2.47;;;;;;;17.14;100.00;102005.09;4991224;28;20054;-87
2023/08/17 07:15:31;;;;;;;7.10;2.30;;;;;;;17.19;100.00;102001.88;4989731;28;20117;-87
2023/08/17 07:17:56;;;;;;;5.30;2.35;;;;;;;17.13;100.00;101989.31;4988127;28;20034;-87
2023/08/17 07:20:22;;;;;;;3.95;2.28;;;;;;;17.30;100.00;102001.13;4989708;28;20034;-87
2023/08/17 07:22:47;;;;;;;5.63;2.50;;;;;;;17.16;100.00;102007.53;4990037;28;20120;-87
2023/08/17 07:25:13;;;;;;;5.32;2.60;;;;;;;17.18;100.00;102008.78;4989037;28;20066;-87
2023/08/17 07:27:38;;;;;;;6.68;2.75;;;;;;;17.25;100.00;102010.81;4988357;28;20042;-87
2023/08/17 07:30:04;;;;;;;4.85;2.03;;;;;;;17.27;100.00;101999.91;4983142;28;20573;-87
2023/08/17 07:32:30;;;;;;;4.47;2.38;;;;;;;17.31;100.00;101999.91;4991562;28;20487;-87
2023/08/17 07:34:55;;;;;;;5.75;2.40;;;;;;;17.35;100.00;102007.22;4989510;28;20026;-88
2023/08/17 07:37:21;;;;;;;6.47;2.45;;;;;;;17.34;100.00;101984.97;4989958;28;20026;-87
2023/08/17 07:39:46;;;;;;;4.18;2.13;;;;;;;17.32;100.00;101978.91;4986366;28;20038;-87
2023/08/17 07:42:11;;;;;;;6.22;2.35;;;;;;;17.51;100.00;101995.56;4984792;28;20387;-87
2023/08/17 07:44:38;;;;;;;3.25;1.80;;;;;;;17.51;100.00;102006.06;4978519;28;20034;-87
2023/08/17 07:47:04;;;;;;;8.77;2.70;;;;;;;17.56;100.00;102006.50;4980357;28;20023;-87
2023/08/17 07:49:29;;;;;;;4.10;2.03;;;;;;;17.57;100.00;102016.59;4984155;28;20403;-87
2023/08/17 07:51:54;;;;;;;7.22;3.10;;;;;;;17.71;100.00;102017.84;4990772;28;20035;-87
2023/08/17 07:54:20;;;;;;;4.63;1.95;;;;;;;17.65;100.00;102009.75;4989071;28;20042;-87
2023/08/17 07:56:45;;;;;;;5.05;1.75;;;;;;;17.82;100.00;102015.88;4990843;28;20059;-87
2023/08/17 07:59:11;;;;;;;9.55;2.13;;;;;;;17.79;100.00;102005.34;4989362;28;20033;-87
2023/08/17 08:01:36;;;;;;;4.70;2.22;;;;;;;17.70;100.00;102016.25;4979092;28;20031;-87
2023/08/17 08:04:02;;;;;;;6.07;2.72;;;;;;;17.73;100.00;102018.25;4989333;28;20014;-87
2023/08/17 08:06:27;;;;;;;5.03;2.15;;;;;;;17.95;100.00;102008.66;4985192;28;20516;-88
2023/08/17 08:08:53;;;;;;;8.43;3.10;;;;;;;17.88;100.00;102012.28;4983207;28;20026;-86
2023/08/17 08:11:18;;;;;;;4.60;2.17;;;;;;;17.95;100.00;102019.97;4988711;28;20030;-87
2023/08/17 08:13:43;;;;;;;3.85;1.70;;;;;;;17.68;100.00;101999.66;4988832;28;20149;-86
2023/08/17 08:16:09;;;;;;;7.45;2.10;;;;;;;17.86;100.00;102016.72;4988678;28;20126;-88
2023/08/17 08:18:34;;;;;;;6.75;2.53;;;;;;;18.01;100.00;102026.06;4988429;28;20026;-87
2023/08/17 08:20:59;;;;;;;4.88;2.00;;;;;;;17.98;100.00;102024.03;4989035;28;20036;-87
2023/08/17 08:23:26;;;;;;;6.75;2.17;;;;;;;18.22;100.00;102020.44;4989931;28;20041;-88
2023/08/17 08:25:51;;;;;;;4.15;1.95;;;;;;;18.18;100.00;102021.66;4987178;28;20369;-86
2023/08/17 08:28:17;;;;;;;3.30;1.92;;;;;;;18.21;100.00;102029.31;4983505;28;20081;-86
2023/08/17 08:30:42;;;;;;;5.03;2.35;;;;;;;18.45;100.00;102034.22;4988959;28;20030;-88
2023/08/17 08:33:07;;;;;;;4.15;1.98;;;;;;;18.36;100.00;102030.16;4990155;28;20081;-87
2023/08/17 08:35:33;;;;;;;3.63;1.75;;;;;;;18.44;100.00;102034.59;4983943;28;20041;-87
2023/08/17 08:37:59;;;;;;;6.47;1.83;;;;;;;18.51;100.00;102016.78;4988356;28;20076;-88
2023/08/17 08:40:29;;;;;;;3.25;1.90;;;;;;;18.37;100.00;102007.06;4987439;28;20113;-88
2023/08/17 08:42:56;;;;;;;5.45;1.77;;;;;;;18.45;100.00;102020.03;4988509;28;20475;-87
2023/08/17 08:45:22;;;;;;;5.20;1.95;;;;;;;18.43;100.00;102016.78;4983118;28;20038;-87
2023/08/17 08:47:49;;;;;;;3.55;1.98;;;;;;;18.62;100.00;102018.41;4987175;28;20037;-87
2023/08/17 08:50:19;;;;;;;3.88;1.70;;;;;;;18.48;100.00;102001.41;4989922;28;20475;-88
2023/08/17 08:52:57;;;;;;;4.82;1.98;;;;;;;18.47;100.00;102017.59;4990153;28;20561;-88
2023/08/17 08:55:24;;;;;;;3.10;1.95;;;;;;;18.59;100.00;102012.72;4987436;28;20030;-87
2023/08/17 08:57:52;;;;;;;2.53;2.05;;;;;;;18.45;100.00;102003.03;4986978;28;20081;-87
2023/08/17 09:00:18;;;;;;;3.63;1.48;;;;;;;18.68;100.00;102013.94;4986747;28;20032;-88
2023/08/17 09:02:44;;;;;;;5.00;1.95;;;;;;;18.73;100.00;102011.91;4980856;28;20109;-88
2023/08/17 09:05:11;;;;;;;3.22;1.50;;;;;;;18.85;100.00;102020.84;5004849;28;20050;-88
2023/08/17 09:07:38;;;;;;;6.63;2.35;;;;;;;18.82;100.00;102026.50;4983865;28;20352;-87
2023/08/17 09:10:04;;;;;;;4.00;1.90;;;;;;;18.93;100.00;102003.78;4989450;28;20022;-88
2023/08/17 09:12:29;;;;;;;3.97;1.77;;;;;;;19.00;100.00;102010.28;4987741;28;20030;-88
2023/08/17 09:14:55;;;;;;;5.68;2.45;;;;;;;18.85;100.00;102009.50;4988342;28;20040;-87
2023/08/17 09:17:25;;;;;;;4.88;1.83;;;;;;;18.80;100.00;102006.25;4988642;28;20058;-87
2023/08/17 09:19:50;;;;;;;3.55;2.03;;;;;;;18.70;100.00;102007.88;4986998;28;20065;-88
2023/08/17 09:22:24;;;;;;;2.90;1.90;;;;;;;18.68;100.00;101999.78;4989980;28;20022;-88
2023/08/17 09:24:49;;;;;;;4.00;1.48;;;;;;;18.68;100.00;101996.13;4984783;28;20033;-87
2023/08/17 09:27:15;;;;;;;5.05;1.85;;;;;;;18.58;100.00;101989.25;4979006;28;20066;-87
2023/08/17 09:29:43;;;;;;;7.47;1.92;;;;;;;18.76;100.00;102005.41;5002856;28;20490;-88
2023/08/17 09:32:10;;;;;;;5.18;1.75;;;;;;;18.88;100.00;102005.03;4988056;28;20490;-87
2023/08/17 09:34:35;;;;;;;4.50;1.58;;;;;;;18.82;100.00;101989.63;4976165;28;20023;-87
2023/08/17 09:37:04;;;;;;;6.07;2.08;;;;;;;18.85;100.00;101992.47;4991455;28;20025;-87
2023/08/17 09:39:31;;;;;;;4.80;2.38;;;;;;;18.91;100.00;101997.72;4988080;28;20018;-88
2023/08/17 09:41:56;;;;;;;9.05;2.33;;;;;;;18.93;100.00;101992.44;4987639;28;20109;-87
2023/08/17 09:44:22;;;;;;;7.60;2.42;;;;;;;18.92;100.00;101990.84;4984972;28;20113;-88
2023/08/17 09:46:47;;;;;;;8.02;2.40;;;;;;;18.95;100.00;101979.47;4987672;28;20026;-88
2023/08/17 09:49:13;;;;;;;5.30;2.92;;;;;;;19.07;100.00;101993.22;4984483;28;20495;-87
2023/08/17 09:51:44;;;;;;;7.05;2.97;;;;;;;19.06;100.00;101979.47;4990517;28;20026;-87
2023/08/17 09:54:24;;;;;;;5.40;2.60;;;;;;;19.04;100.00;101993.25;4987408;28;20277;-87
2023/08/17 09:56:53;;;;;;;5.13;2.17;;;;;;;18.89;100.00;101993.28;4985016;28;20034;-89
2023/08/17 09:59:20;;;;;;;4.88;2.20;;;;;;;18.77;100.00;101979.50;4987213;28;20022;-87
2023/08/17 10:01:50;;;;;;;6.47;2.50;;;;;;;18.77;100.00;101992.88;4984614;28;20026;-87
2023/08/17 10:04:22;;;;;;;6.40;3.20;;;;;;;18.59;100.00;101993.69;4987326;28;20026;-87
2023/08/17 10:06:52;;;;;;;;;;;;;;;18.76;100.00;101991.25;4979060;28;20026;-87
2023/08/17 10:09:25;;;;;;;6.55;2.63;;;;;;;18.58;100.00;101982.78;4987659;28;20011;-86
2023/08/17 10:11:53;;;;;;;7.43;2.47;;;;;;;18.54;100.00;101977.09;4978958;28;20041;-87
2023/08/17 10:14:23;;;;;;;6.63;2.88;;;;;;;18.59;100.00;101982.34;4982142;28;20147;-87
2023/08/17 10:17:13;;;;;;;4.78;2.00;;;;;;;18.79;100.00;101994.09;4977697;28;20019;-87
2023/08/17 10:19:52;;;;;;;5.65;2.20;;;;;;;18.74;100.00;101990.84;4986754;28;20092;-87
2023/08/17 10:22:44;;;;;;;3.97;1.98;;;;;;;18.79;100.00;101994.09;4985845;28;20521;-87
2023/08/17 10:25:13;;;;;;;4.32;2.03;;;;;;;18.66;100.00;101976.69;4987237;28;20427;-87
2023/08/17 10:27:40;;;;;;;11.82;2.30;;;;;;;18.81;100.00;101973.84;4991150;28;20037;-87
2023/08/17 10:30:06;;;;;;;11.15;4.43;;;;;;;18.81;100.00;101985.19;4993977;28;20386;-88
2023/08/17 10:32:32;;;;;;;5.30;2.25;;;;;;;18.81;100.00;101986.00;4992535;28;20032;-88
2023/08/17 10:34:58;;;;;;;3.38;2.25;;;;;;;18.70;100.00;101973.84;4989829;28;20037;-87
2023/08/17 10:37:24;;;;;;;10.13;2.55;;;;;;;18.77;100.00;101973.81;4990556;28;20026;-87
2023/08/17 10:39:50;;;;;;;8.52;2.65;;;;;;;18.81;100.00;101980.31;4990685;28;20026;-88
2023/08/17 10:42:30;;;;;;;6.97;2.30;;;;;;;18.90;100.00;101977.06;4987025;28;20384;-87
2023/08/17 10:44:56;;;;;;;5.90;2.60;;;;;;;18.85;100.00;101949.94;5006171;28;20034;-88
2023/08/17 10:47:31;;;;;;;5.53;2.72;;;;;;;18.82;100.00;101959.25;5006983;28;20037;-88
2023/08/17 10:49:57;;;;;;;5.78;3.15;;;;;;;19.09;100.00;101956.72;4989765;28;20431;-87
2023/08/17 10:52:34;;;;;;;4.82;2.30;;;;;;;19.12;100.00;101940.94;4995666;28;20030;-87
2023/08/17 10:55:01;;;;;;;3.15;2.45;;;;;;;19.29;100.00;101954.22;4990238;28;20030;-87
2023/08/17 10:57:30;;;;;;;7.70;3.05;;;;;;;19.44;100.00;101963.47;4991962;28;20518;-87
2023/08/17 11:00:26;;;;;;;3.85;2.53;;;;;;;19.44;100.00;101971.19;4988104;28;20483;-88
2023/08/17 11:02:58;;;;;;;3.45;2.38;;;;;;;19.40;100.00;101964.72;4992872;28;20029;-87
2023/08/17 11:05:55;;;;;;;5.15;2.85;;;;;;;19.29;100.00;101968.41;4980394;28;20038;-87
2023/08/17 11:08:51;;;;;;;6.53;4.47;;;;;;;19.36;100.00;101963.94;4986000;28;20430;-87
2023/08/17 11:11:19;;;;;;;4.78;2.65;;;;;;;19.20;100.00;101956.69;4979363;28;20121;-87
2023/08/17 11:13:46;;;;;;;3.42;2.95;;;;;;;19.27;100.00;101945.31;4974809;28;20133;-88
2023/08/17 11:16:15;;;;;;;3.88;2.03;;;;;;;19.43;100.00;101959.00;4983998;28;20539;-88